Time;durP1;ratioP1;P1;durP2;ratioP2;P2;SDS_P1;SDS_P2;PMS_P1;PMS_P2;Temp;Humidity;BMP_temperature;BMP_pressure;BME280_temperature;BME280_humidity;BME280_pressure;Samples;Min_cycle;Max_cycle;Signal;HPM_P1;HPM_P2
2022/06/23 00:00:59;;;;;;;6.40;3.25;;;25.30;94.20;;;;;;4157269;28;20262;-74
2022/06/23 00:03:04;;;;;;;5.88;3.10;;;25.30;94.10;;;;;;4155434;28;20219;-75
2022/06/23 00:05:14;;;;;;;6.20;3.03;;;25.30;94.20;;;;;;4160048;28;20223;-74
2022/06/23 00:07:20;;;;;;;6.75;3.33;;;25.30;94.10;;;;;;4157741;28;21661;-74
2022/06/23 00:09:48;;;;;;;6.68;3.17;;;25.30;94.20;;;;;;4157221;28;20572;-74
2022/06/23 00:11:51;;;;;;;7.53;3.28;;;25.30;94.20;;;;;;4157677;28;20631;-74
2022/06/23 00:14:07;;;;;;;5.53;3.10;;;25.30;94.10;;;;;;4158294;28;20247;-75
2022/06/23 00:16:22;;;;;;;6.45;3.33;;;25.30;94.20;;;;;;4157816;28;20217;-74
2022/06/23 00:18:27;;;;;;;6.82;3.20;;;25.30;94.20;;;;;;4160650;28;20271;-74
2022/06/23 00:20:34;;;;;;;6.10;3.28;;;25.30;94.30;;;;;;4158811;28;20217;-74
2022/06/23 00:22:42;;;;;;;5.50;2.97;;;25.20;94.20;;;;;;4155339;28;20224;-74
2022/06/23 00:24:48;;;;;;;4.80;2.88;;;25.30;94.40;;;;;;4158929;28;20219;-74
2022/06/23 00:26:52;;;;;;;7.25;3.15;;;25.30;94.30;;;;;;4158229;28;21067;-74
2022/06/23 00:29:00;;;;;;;6.80;3.35;;;25.20;94.30;;;;;;4158415;28;20236;-74
2022/06/23 00:31:05;;;;;;;6.55;3.40;;;25.20;94.30;;;;;;4156634;28;20220;-74
2022/06/23 00:33:14;;;;;;;5.25;3.10;;;25.20;94.70;;;;;;4157680;28;20217;-74
2022/06/23 00:35:19;;;;;;;5.90;3.00;;;25.20;94.30;;;;;;4156872;28;20270;-74
2022/06/23 00:37:21;;;;;;;5.68;3.05;;;25.20;94.30;;;;;;4157101;28;20225;-74
2022/06/23 00:39:31;;;;;;;6.50;3.13;;;25.20;94.40;;;;;;4155922;28;20259;-74
2022/06/23 00:41:38;;;;;;;5.63;2.95;;;25.20;94.50;;;;;;4157754;28;20286;-74
2022/06/23 00:43:45;;;;;;;6.45;3.30;;;25.20;94.40;;;;;;4155147;28;20220;-74
2022/06/23 00:45:52;;;;;;;5.45;3.35;;;25.20;94.40;;;;;;4155788;28;20224;-74
2022/06/23 00:48:00;;;;;;;5.50;3.03;;;25.20;94.50;;;;;;4158029;28;20721;-74
2022/06/23 00:50:16;;;;;;;7.13;3.50;;;25.20;94.50;;;;;;4156743;28;20301;-74
2022/06/23 00:52:24;;;;;;;6.80;3.00;;;25.20;94.60;;;;;;4157513;28;20699;-74
2022/06/23 00:54:32;;;;;;;5.05;2.72;;;25.20;94.60;;;;;;4157032;28;20274;-73
2022/06/23 00:56:44;;;;;;;6.07;3.17;;;25.20;94.70;;;;;;4156383;28;20664;-74
2022/06/23 00:58:51;;;;;;;5.60;3.05;;;25.10;94.70;;;;;;4157160;28;20496;-74
2022/06/23 01:01:05;;;;;;;6.72;3.33;;;25.10;94.60;;;;;;4155805;28;20228;-74
2022/06/23 01:03:18;;;;;;;5.43;2.97;;;25.10;94.60;;;;;;4156284;28;20247;-74
2022/06/23 01:05:24;;;;;;;6.50;3.10;;;25.10;94.60;;;;;;4154791;28;20220;-74
2022/06/23 01:07:39;;;;;;;5.35;2.70;;;25.10;94.60;;;;;;4159975;28;20332;-74
2022/06/23 01:09:50;;;;;;;7.82;3.00;;;25.10;94.60;;;;;;4158085;28;20236;-74
2022/06/23 01:11:58;;;;;;;4.30;2.72;;;25.10;94.60;;;;;;4157766;28;20231;-74
2022/06/23 01:14:12;;;;;;;5.18;3.00;;;25.10;94.60;;;;;;4156262;28;20571;-74
2022/06/23 01:16:20;;;;;;;6.10;3.05;;;25.10;94.70;;;;;;4155979;28;20220;-74
2022/06/23 01:18:27;;;;;;;6.13;3.40;;;25.10;94.60;;;;;;4157449;28;20688;-74
2022/06/23 01:20:36;;;;;;;5.43;2.97;;;25.10;94.70;;;;;;4158578;28;20664;-74
2022/06/23 01:22:53;;;;;;;5.57;2.90;;;25.10;94.80;;;;;;4155895;28;20551;-74
2022/06/23 01:25:07;;;;;;;5.60;3.00;;;25.10;95.30;;;;;;4157304;28;20228;-74
2022/06/23 01:27:28;;;;;;;4.00;2.70;;;25.10;94.80;;;;;;4158314;28;20633;-74
2022/06/23 01:29:38;;;;;;;6.15;2.92;;;25.10;94.80;;;;;;4157006;28;20669;-74
2022/06/23 01:31:45;;;;;;;7.53;3.53;;;25.00;94.80;;;;;;4157788;28;20684;-74
2022/06/23 01:33:52;;;;;;;5.85;2.97;;;25.10;94.90;;;;;;4156579;28;20235;-74
2022/06/23 01:36:03;;;;;;;5.57;2.70;;;25.10;94.90;;;;;;4157657;28;20349;-74
2022/06/23 01:38:12;;;;;;;5.72;3.05;;;25.10;94.80;;;;;;4156459;28;20232;-74
2022/06/23 01:40:21;;;;;;;5.28;2.78;;;25.00;94.90;;;;;;4156391;28;20597;-74
2022/06/23 01:42:34;;;;;;;9.25;3.20;;;25.00;94.90;;;;;;4156095;28;20216;-74
2022/06/23 01:44:46;;;;;;;5.90;3.17;;;25.00;94.80;;;;;;4155502;28;20660;-74
2022/06/23 01:46:53;;;;;;;5.03;2.75;;;25.10;94.80;;;;;;4155971;28;20744;-74
2022/06/23 01:48:59;;;;;;;4.22;2.40;;;25.00;94.80;;;;;;4156304;28;20290;-74
2022/06/23 01:51:01;;;;;;;6.30;3.13;;;25.10;94.80;;;;;;4154844;28;20278;-74
2022/06/23 01:53:13;;;;;;;5.78;3.00;;;25.10;94.80;;;;;;4157979;28;20224;-74
2022/06/23 01:55:18;;;;;;;7.15;3.33;;;25.00;94.80;;;;;;4158251;28;20215;-73
2022/06/23 01:57:29;;;;;;;6.15;3.08;;;25.00;94.80;;;;;;4158361;28;20216;-74
2022/06/23 01:59:56;;;;;;;7.05;3.30;;;25.00;94.80;;;;;;4159058;28;20615;-74
2022/06/23 02:02:09;;;;;;;5.07;3.10;;;25.00;94.90;;;;;;4158842;28;20254;-75
2022/06/23 02:04:17;;;;;;;6.40;3.17;;;25.00;94.80;;;;;;4155857;28;20220;-75
2022/06/23 02:06:26;;;;;;;4.68;2.78;;;25.00;94.80;;;;;;4159789;28;20274;-75
2022/06/23 02:08:35;;;;;;;5.38;2.55;;;25.00;95.10;;;;;;4154982;28;20236;-75
2022/06/23 02:10:45;;;;;;;4.45;2.42;;;24.90;94.90;;;;;;4158404;28;20220;-75
2022/06/23 02:12:50;;;;;;;5.15;3.17;;;24.90;95.00;;;;;;4160852;28;20212;-75
2022/06/23 02:14:59;;;;;;;4.72;3.25;;;25.00;95.00;;;;;;4158970;28;20691;-75
2022/06/23 02:17:12;;;;;;;4.97;2.97;;;25.00;95.00;;;;;;4162514;28;20278;-75
2022/06/23 02:19:24;;;;;;;4.97;2.95;;;25.00;94.90;;;;;;4161684;28;20664;-75
2022/06/23 02:21:31;;;;;;;4.13;2.70;;;24.90;94.90;;;;;;4161282;28;20251;-75
2022/06/23 02:23:41;;;;;;;3.47;2.40;;;24.90;94.90;;;;;;4164569;28;20215;-75
2022/06/23 02:25:52;;;;;;;3.75;2.30;;;24.90;94.90;;;;;;4160785;28;20224;-75
2022/06/23 02:28:03;;;;;;;5.78;3.05;;;24.90;94.90;;;;;;4161954;28;20220;-75
2022/06/23 02:30:13;;;;;;;5.68;2.50;;;24.90;94.90;;;;;;4160988;28;20244;-75
2022/06/23 02:32:20;;;;;;;5.03;2.83;;;24.90;94.90;;;;;;4162780;28;20228;-75
2022/06/23 02:34:30;;;;;;;5.97;2.85;;;24.90;94.90;;;;;;4161020;28;21765;-75
2022/06/23 02:36:54;;;;;;;4.90;2.92;;;24.90;94.90;;;;;;4161389;28;20211;-74
2022/06/23 02:38:59;;;;;;;4.40;2.30;;;24.90;94.90;;;;;;4160233;28;20274;-74
2022/06/23 02:41:10;;;;;;;4.22;2.63;;;24.90;94.90;;;;;;4161855;28;20224;-74
2022/06/23 02:43:25;;;;;;;4.43;2.72;;;24.90;94.90;;;;;;4158418;28;20228;-74
2022/06/23 02:46:04;;;;;;;5.80;2.55;;;24.90;95.30;;;;;;4163856;28;20629;-74
2022/06/23 02:48:24;;;;;;;4.70;2.50;;;24.90;95.00;;;;;;4079879;28;20228;-74
2022/06/23 02:50:42;;;;;;;3.45;2.50;;;24.90;95.00;;;;;;4159547;28;20757;-74
2022/06/23 02:53:04;;;;;;;5.10;3.00;;;24.80;94.90;;;;;;4157233;28;20216;-74
2022/06/23 02:55:42;;;;;;;5.07;2.30;;;24.90;95.00;;;;;;4161041;28;20255;-74
2022/06/23 02:57:50;;;;;;;4.07;2.40;;;24.90;95.10;;;;;;4157302;28;20217;-74
2022/06/23 02:59:57;;;;;;;3.60;2.17;;;24.90;95.00;;;;;;4159016;28;20243;-74
2022/06/23 03:02:04;;;;;;;3.65;2.53;;;24.90;95.00;;;;;;4160348;28;20286;-75
2022/06/23 03:04:14;;;;;;;5.78;2.90;;;24.90;95.10;;;;;;4155280;28;20215;-74
2022/06/23 03:06:22;;;;;;;4.22;2.60;;;24.90;95.10;;;;;;4154696;28;20220;-74
2022/06/23 03:08:32;;;;;;;3.97;2.13;;;24.80;95.10;;;;;;4158740;28;20278;-74
2022/06/23 03:10:41;;;;;;;5.47;2.53;;;24.80;95.10;;;;;;4158101;28;20236;-74
2022/06/23 03:12:48;;;;;;;3.58;2.25;;;24.80;95.00;;;;;;4159234;28;20294;-74
2022/06/23 03:15:01;;;;;;;7.03;3.03;;;24.80;95.00;;;;;;4161297;28;20630;-74
2022/06/23 03:17:14;;;;;;;4.90;2.60;;;24.80;95.10;;;;;;4156964;28;20222;-74
2022/06/23 03:19:20;;;;;;;5.13;2.92;;;24.80;95.10;;;;;;4157446;28;20223;-74
2022/06/23 03:21:27;;;;;;;5.55;2.47;;;24.80;95.10;;;;;;4160636;28;20224;-74
2022/06/23 03:23:34;;;;;;;4.72;2.33;;;24.80;95.10;;;;;;4158781;28;20731;-74
2022/06/23 03:25:43;;;;;;;3.58;2.38;;;24.80;95.10;;;;;;4160600;28;20282;-74
2022/06/23 03:27:51;;;;;;;5.05;3.10;;;24.80;95.10;;;;;;4159222;28;20220;-74
2022/06/23 03:29:59;;;;;;;4.18;2.58;;;24.80;95.10;;;;;;4158733;28;20298;-74
2022/06/23 03:32:08;;;;;;;5.35;2.78;;;24.80;95.00;;;;;;4158292;28;20275;-74
2022/06/23 03:34:19;;;;;;;4.45;2.83;;;24.80;95.10;;;;;;4158448;28;20215;-74
2022/06/23 03:36:27;;;;;;;3.38;2.40;;;24.80;95.10;;;;;;4158555;28;20535;-74
2022/06/23 03:43:28;;;;;;;3.60;2.20;;;24.80;95.20;;;;;;4157299;28;20204;-74
2022/06/23 03:45:34;;;;;;;2.92;2.22;;;24.70;95.10;;;;;;4156292;28;20694;-74
2022/06/23 03:47:44;;;;;;;3.80;2.08;;;24.80;95.20;;;;;;4158886;28;20217;-74
2022/06/23 03:49:51;;;;;;;3.55;2.35;;;24.70;95.20;;;;;;4157444;28;20266;-74
2022/06/23 03:51:58;;;;;;;4.60;2.70;;;24.70;95.20;;;;;;4157111;28;20225;-74
2022/06/23 03:54:05;;;;;;;5.38;2.40;;;24.70;95.30;;;;;;4158675;28;20221;-74
2022/06/23 03:56:11;;;;;;;4.20;2.33;;;24.70;95.20;;;;;;4157427;28;20659;-75
2022/06/23 03:58:17;;;;;;;4.20;2.65;;;24.70;95.30;;;;;;4160581;28;20232;-75
2022/06/23 04:00:29;;;;;;;3.35;2.20;;;24.70;95.30;;;;;;4158564;28;20977;-74
2022/06/23 04:02:39;;;;;;;4.90;2.42;;;24.70;95.30;;;;;;4158152;28;20228;-75
2022/06/23 04:04:48;;;;;;;4.97;2.50;;;24.80;95.30;;;;;;4157659;28;20262;-75
2022/06/23 04:06:52;;;;;;;4.05;2.25;;;24.70;95.30;;;;;;4159387;28;20738;-75
2022/06/23 04:09:00;;;;;;;4.07;2.55;;;24.70;95.30;;;;;;4160636;28;20575;-75
2022/06/23 04:13:34;;;;;;;3.75;2.20;;;24.70;95.20;;;;;;4146654;28;20806;-75
2022/06/23 04:15:41;;;;;;;3.85;2.40;;;24.70;95.30;;;;;;4159373;28;20216;-75
2022/06/23 04:17:47;;;;;;;3.88;2.25;;;24.70;95.30;;;;;;4158568;28;20266;-75
2022/06/23 04:19:54;;;;;;;4.22;2.45;;;24.70;95.70;;;;;;4158932;28;20217;-75
2022/06/23 04:22:05;;;;;;;5.25;2.60;;;24.70;95.30;;;;;;4158449;28;20284;-75
2022/06/23 04:24:16;;;;;;;3.13;2.10;;;24.70;95.30;;;;;;4156888;28;20259;-75
2022/06/23 04:26:23;;;;;;;3.45;2.05;;;24.70;95.30;;;;;;4161448;28;20220;-75
2022/06/23 04:28:30;;;;;;;3.75;2.35;;;24.70;95.40;;;;;;4159263;28;20964;-75
2022/06/23 04:30:37;;;;;;;4.38;2.30;;;24.70;95.40;;;;;;4159586;28;20281;-75
2022/06/23 04:32:39;;;;;;;3.40;2.58;;;24.70;95.30;;;;;;4158786;28;20271;-74
2022/06/23 04:34:49;;;;;;;3.40;2.53;;;24.70;95.30;;;;;;4159931;28;20220;-75
2022/06/23 04:36:51;;;;;;;3.65;2.30;;;24.70;95.30;;;;;;4156449;28;20269;-75
2022/06/23 04:39:01;;;;;;;3.25;2.13;;;24.70;95.30;;;;;;4157474;28;20266;-74
2022/06/23 04:41:11;;;;;;;4.25;2.30;;;24.70;95.30;;;;;;4155604;28;20305;-75
2022/06/23 04:43:18;;;;;;;3.38;2.20;;;24.70;95.30;;;;;;4158800;28;20224;-75
2022/06/23 04:45:43;;;;;;;4.05;2.30;;;24.70;95.30;;;;;;4158335;28;20294;-75
2022/06/23 04:47:47;;;;;;;4.00;2.10;;;24.70;95.40;;;;;;4157978;28;20283;-75
2022/06/23 04:49:54;;;;;;;4.25;2.38;;;24.70;95.20;;;;;;4157193;28;20251;-75
2022/06/23 04:52:01;;;;;;;3.75;2.20;;;24.70;95.30;;;;;;4155907;28;20217;-75
2022/06/23 04:54:08;;;;;;;4.25;2.40;;;24.70;95.30;;;;;;4150771;28;20220;-75
2022/06/23 04:56:22;;;;;;;2.75;2.10;;;24.70;95.40;;;;;;4158098;28;20220;-75
2022/06/23 04:58:25;;;;;;;3.25;2.25;;;24.70;95.30;;;;;;4158553;28;20220;-75
2022/06/23 05:00:31;;;;;;;4.25;2.20;;;24.70;95.30;;;;;;4159294;28;20217;-75
2022/06/23 05:02:39;;;;;;;3.45;2.13;;;24.70;95.40;;;;;;4157323;28;20349;-75
2022/06/23 05:04:44;;;;;;;4.28;2.22;;;24.70;95.30;;;;;;4159515;28;20216;-75
2022/06/23 05:06:51;;;;;;;4.85;2.30;;;24.70;95.30;;;;;;4161320;28;20216;-75
2022/06/23 05:08:54;;;;;;;4.07;2.20;;;24.70;95.30;;;;;;4163090;28;20247;-75
2022/06/23 05:11:03;;;;;;;5.03;2.50;;;24.80;95.30;;;;;;4159207;28;20291;-75
2022/06/23 05:13:08;;;;;;;2.78;2.03;;;24.70;95.30;;;;;;4159506;28;20270;-75
2022/06/23 05:15:17;;;;;;;2.58;2.08;;;24.70;95.30;;;;;;4156572;28;20262;-75
2022/06/23 05:17:23;;;;;;;4.15;2.20;;;24.70;95.80;;;;;;4160849;28;20262;-75
2022/06/23 05:19:29;;;;;;;3.83;2.40;;;24.70;95.60;;;;;;4160078;28;20228;-75
2022/06/23 05:21:38;;;;;;;4.75;2.22;;;24.70;95.60;;;;;;4157940;28;20549;-75
2022/06/23 05:23:45;;;;;;;3.15;2.10;;;24.70;95.60;;;;;;4159128;28;20211;-75
2022/06/23 05:25:51;;;;;;;4.72;2.33;;;24.70;95.60;;;;;;4156784;28;20216;-75
2022/06/23 05:27:56;;;;;;;3.83;2.20;;;24.70;95.60;;;;;;4156333;28;20270;-75
2022/06/23 05:30:04;;;;;;;3.80;2.40;;;24.70;95.50;;;;;;4158344;28;20721;-75
2022/06/23 05:32:16;;;;;;;4.32;2.72;;;24.70;95.60;;;;;;4158374;28;20232;-75
2022/06/23 05:34:23;;;;;;;3.42;2.47;;;24.70;95.60;;;;;;4159580;28;20281;-75
2022/06/23 05:36:29;;;;;;;4.07;2.45;;;24.70;95.60;;;;;;4157291;28;20255;-75
2022/06/23 05:38:37;;;;;;;3.38;1.90;;;24.70;95.60;;;;;;4157936;28;20220;-75
2022/06/23 05:40:48;;;;;;;5.30;2.05;;;24.70;95.60;;;;;;4158457;28;20286;-75
2022/06/23 05:42:54;;;;;;;4.43;2.40;;;24.70;95.60;;;;;;4158444;28;20297;-75
2022/06/23 05:45:01;;;;;;;3.60;2.08;;;24.80;95.60;;;;;;4156652;28;20267;-75
2022/06/23 05:47:04;;;;;;;4.70;2.17;;;24.70;95.60;;;;;;4156320;28;20288;-75
2022/06/23 05:49:16;;;;;;;4.00;2.30;;;24.70;95.70;;;;;;4154765;28;20271;-75
2022/06/23 05:51:26;;;;;;;3.75;2.20;;;24.80;96.30;;;;;;4159788;28;20297;-75
2022/06/23 05:53:34;;;;;;;4.70;2.20;;;24.70;95.60;;;;;;4157660;28;20239;-75
2022/06/23 05:55:44;;;;;;;3.53;2.08;;;24.80;95.80;;;;;;4160745;28;20241;-75
2022/06/23 05:57:55;;;;;;;4.97;2.42;;;24.80;95.90;;;;;;4157938;28;20220;-75
2022/06/23 06:00:03;;;;;;;3.95;2.38;;;24.80;95.80;;;;;;4158934;28;20265;-75
2022/06/23 06:02:12;;;;;;;3.65;2.53;;;24.80;95.90;;;;;;4157681;28;20262;-75
2022/06/23 06:04:19;;;;;;;3.03;2.17;;;24.70;95.70;;;;;;4159006;28;20989;-75
2022/06/23 06:06:21;;;;;;;6.32;2.35;;;24.80;95.60;;;;;;4155542;28;20653;-75
2022/06/23 06:08:30;;;;;;;4.88;2.33;;;24.80;95.80;;;;;;4157512;28;20236;-75
2022/06/23 06:10:34;;;;;;;3.95;2.60;;;24.70;95.80;;;;;;4156575;28;20935;-75
2022/06/23 06:12:41;;;;;;;2.83;2.15;;;24.80;96.10;;;;;;4157403;28;20216;-75
2022/06/23 06:14:47;;;;;;;3.38;2.65;;;24.80;96.10;;;;;;4157262;28;20216;-75
2022/06/23 06:16:50;;;;;;;4.15;2.38;;;24.80;96.20;;;;;;4157877;28;20278;-76
2022/06/23 06:18:53;;;;;;;3.97;2.20;;;24.70;96.10;;;;;;4156579;28;20216;-75
2022/06/23 06:20:58;;;;;;;4.00;2.20;;;24.80;96.30;;;;;;4157841;28;20212;-75
2022/06/23 06:23:05;;;;;;;3.28;2.25;;;24.80;96.30;;;;;;4157182;28;20723;-76
2022/06/23 06:25:16;;;;;;;5.10;2.80;;;24.80;96.30;;;;;;4157871;28;20615;-76
2022/06/23 06:27:19;;;;;;;4.63;2.15;;;24.80;96.70;;;;;;4156531;28;20216;-75
2022/06/23 06:29:26;;;;;;;2.55;2.05;;;24.80;96.70;;;;;;4160351;28;20295;-75
2022/06/23 06:31:34;;;;;;;4.28;2.22;;;24.70;96.70;;;;;;4156563;28;20240;-76
2022/06/23 06:33:47;;;;;;;3.95;2.42;;;24.80;96.70;;;;;;4157262;28;20220;-75
2022/06/23 06:35:55;;;;;;;4.43;2.85;;;24.80;96.70;;;;;;4155986;28;20376;-75
2022/06/23 06:38:03;;;;;;;3.55;2.40;;;24.80;96.80;;;;;;4157634;28;20258;-76
2022/06/23 06:40:06;;;;;;;3.70;2.58;;;24.80;96.90;;;;;;4156679;28;20299;-75
2022/06/23 06:42:12;;;;;;;5.50;3.17;;;24.80;96.90;;;;;;4154581;28;20275;-76
2022/06/23 06:44:17;;;;;;;5.88;2.70;;;24.80;97.10;;;;;;4160255;28;20287;-75
2022/06/23 06:46:21;;;;;;;6.43;2.53;;;24.80;97.20;;;;;;4155140;28;20216;-76
2022/06/23 06:48:27;;;;;;;10.05;4.28;;;24.70;97.60;;;;;;4157398;28;20278;-75
2022/06/23 06:50:37;;;;;;;10.23;3.22;;;24.70;99.90;;;;;;4156656;28;20290;-75
2022/06/23 06:52:40;;;;;;;9.55;3.78;;;24.60;99.90;;;;;;4153886;28;20232;-75
2022/06/23 06:54:45;;;;;;;6.63;3.50;;;24.60;99.90;;;;;;4156923;28;20224;-77
2022/06/23 06:56:52;;;;;;;6.20;3.67;;;24.50;99.90;;;;;;4157669;28;20208;-77
2022/06/23 06:59:00;;;;;;;7.03;4.32;;;24.40;99.90;;;;;;4161533;28;20217;-76
2022/06/23 07:01:16;;;;;;;9.70;4.72;;;24.30;99.90;;;;;;4157910;28;20319;-75
2022/06/23 07:03:25;;;;;;;12.45;4.80;;;24.40;99.90;;;;;;4155175;28;20270;-76
2022/06/23 07:05:33;;;;;;;9.05;4.57;;;24.40;99.90;;;;;;4155752;28;20220;-77
2022/06/23 07:07:40;;;;;;;6.43;3.90;;;24.60;99.90;;;;;;4158682;28;20240;-74
2022/06/23 07:09:53;;;;;;;7.50;4.05;;;24.60;99.90;;;;;;4152272;28;20338;-74
2022/06/23 07:12:00;;;;;;;9.25;4.93;;;24.70;99.90;;;;;;4158094;28;20290;-75
2022/06/23 07:14:12;;;;;;;5.93;4.30;;;24.90;99.90;;;;;;4155517;28;20216;-74
2022/06/23 07:16:21;;;;;;;10.07;4.25;;;24.90;99.90;;;;;;4158465;28;20216;-73
2022/06/23 07:18:30;;;;;;;11.60;4.57;;;25.00;99.90;;;;;;4158028;28;20271;-74
2022/06/23 07:20:42;;;;;;;6.78;4.50;;;25.00;99.90;;;;;;4158339;28;20278;-74
2022/06/23 07:22:50;;;;;;;8.32;4.38;;;25.10;99.90;;;;;;4158823;28;20570;-74
2022/06/23 07:25:04;;;;;;;8.35;4.50;;;25.10;99.90;;;;;;4156470;28;20278;-74
2022/06/23 07:27:13;;;;;;;6.82;3.78;;;25.10;99.90;;;;;;4149362;28;20208;-75
2022/06/23 07:29:36;;;;;;;7.80;4.15;;;25.10;99.90;;;;;;4153863;28;20227;-75
2022/06/23 07:31:46;;;;;;;7.95;3.78;;;25.10;99.90;;;;;;4155207;28;20243;-74
2022/06/23 07:33:54;;;;;;;5.80;3.78;;;25.10;99.90;;;;;;4156170;28;20216;-75
2022/06/23 07:36:01;;;;;;;6.63;3.75;;;25.10;99.90;;;;;;4156614;28;20232;-75
2022/06/23 07:38:09;;;;;;;9.00;4.28;;;25.20;99.90;;;;;;4156657;28;20220;-75
2022/06/23 07:40:14;;;;;;;8.93;4.38;;;25.20;99.90;;;;;;4158002;28;21001;-76
2022/06/23 07:42:23;;;;;;;9.18;4.57;;;25.10;99.90;;;;;;4158406;28;20745;-77
2022/06/23 07:44:30;;;;;;;5.82;3.85;;;25.10;99.90;;;;;;4156049;28;20265;-75
2022/06/23 07:46:35;;;;;;;7.50;4.20;;;25.10;99.90;;;;;;4149851;28;20216;-74
2022/06/23 07:48:38;;;;;;;7.68;3.90;;;25.10;99.90;;;;;;4154520;28;20738;-74
2022/06/23 07:50:42;;;;;;;6.25;4.28;;;25.20;99.90;;;;;;4155798;28;20263;-81
2022/06/23 07:52:46;;;;;;;8.48;4.30;;;25.10;99.90;;;;;;4160795;28;20290;-81
2022/06/23 07:54:49;;;;;;;8.43;4.38;;;25.10;99.90;;;;;;4150132;28;20279;-79
2022/06/23 07:56:52;;;;;;;11.13;4.93;;;25.10;99.90;;;;;;4154453;28;20615;-80
2022/06/23 07:58:57;;;;;;;7.75;4.60;;;25.20;99.90;;;;;;4155235;28;20217;-81
2022/06/23 08:01:07;;;;;;;10.57;5.15;;;25.10;99.90;;;;;;4147821;28;20213;-79
2022/06/23 08:03:13;;;;;;;8.57;5.80;;;25.10;99.90;;;;;;4157500;28;20286;-79
2022/06/23 08:05:21;;;;;;;8.95;5.50;;;25.10;99.90;;;;;;4158814;28;20716;-77
2022/06/23 08:07:26;;;;;;;10.70;5.22;;;25.20;99.90;;;;;;4156377;28;20311;-77
2022/06/23 08:09:32;;;;;;;11.70;5.90;;;25.20;99.90;;;;;;4157244;28;20208;-78
2022/06/23 08:14:04;;;;;;;6.95;5.18;;;25.30;99.90;;;;;;4156786;28;20200;-75
2022/06/23 08:18:35;;;;;;;9.35;6.05;;;25.30;99.90;;;;;;4153466;28;20196;-76
2022/06/23 08:20:42;;;;;;;7.18;5.47;;;25.30;99.90;;;;;;4153816;28;20224;-74
2022/06/23 08:22:47;;;;;;;9.05;5.43;;;25.30;99.90;;;;;;4152281;28;20289;-75
2022/06/23 08:24:55;;;;;;;14.90;5.65;;;25.30;99.90;;;;;;4155313;28;20212;-75
2022/06/23 08:27:01;;;;;;;10.48;5.30;;;25.30;99.90;;;;;;4155979;28;20274;-75
2022/06/23 08:29:09;;;;;;;10.90;4.80;;;25.40;99.90;;;;;;4155333;28;20213;-75
2022/06/23 08:31:12;;;;;;;5.97;4.82;;;25.40;99.90;;;;;;4156795;28;20248;-76
2022/06/23 08:33:14;;;;;;;10.30;5.22;;;25.40;99.90;;;;;;4153029;28;20682;-76
2022/06/23 08:35:22;;;;;;;9.60;4.82;;;25.40;99.90;;;;;;4153183;28;20225;-76
2022/06/23 08:37:24;;;;;;;9.68;5.50;;;25.40;99.90;;;;;;4156282;28;20212;-75
2022/06/23 08:39:35;;;;;;;9.43;5.03;;;25.50;99.90;;;;;;4154289;28;20216;-74
2022/06/23 08:41:42;;;;;;;8.57;6.57;;;25.50;99.90;;;;;;4154547;28;20302;-74
2022/06/23 08:43:50;;;;;;;11.80;7.00;;;25.20;99.90;;;;;;4151874;28;20354;-75
2022/06/23 08:45:58;;;;;;;13.23;7.50;;;25.10;99.90;;;;;;4158225;28;20270;-75
2022/06/23 08:48:07;;;;;;;10.20;7.38;;;24.90;99.90;;;;;;4158334;28;20338;-74
2022/06/23 08:50:15;;;;;;;13.40;7.22;;;24.90;99.90;;;;;;4158318;28;20289;-75
2022/06/23 08:52:23;;;;;;;12.63;7.50;;;24.90;99.90;;;;;;4154929;28;20301;-74
2022/06/23 08:54:33;;;;;;;9.02;6.80;;;24.90;99.90;;;;;;4158602;28;20220;-75
2022/06/23 08:56:44;;;;;;;7.43;6.22;;;24.90;99.90;;;;;;4155513;28;20663;-74
2022/06/23 08:58:51;;;;;;;10.18;6.78;;;24.90;99.90;;;;;;4155804;28;20642;-75
2022/06/23 09:01:01;;;;;;;9.73;6.88;;;24.90;99.90;;;;;;4150654;28;20607;-75
2022/06/23 09:03:10;;;;;;;9.25;6.75;;;24.90;99.90;;;;;;4151804;28;20661;-75
2022/06/23 09:05:20;;;;;;;9.93;6.88;;;24.90;99.90;;;;;;4154574;28;20220;-75
2022/06/23 09:07:34;;;;;;;10.52;6.38;;;24.90;99.90;;;;;;4157425;28;20945;-80
2022/06/23 09:09:46;;;;;;;9.27;6.60;;;24.90;99.90;;;;;;4154880;28;20233;-80
2022/06/23 09:11:57;;;;;;;9.23;6.43;;;25.10;99.90;;;;;;4155910;28;20619;-74
2022/06/23 09:14:14;;;;;;;8.13;5.93;;;25.00;99.90;;;;;;4153314;28;20331;-77
2022/06/23 09:16:51;;;;;;;8.18;6.07;;;25.10;99.90;;;;;;4154876;28;20216;-77
2022/06/23 09:19:06;;;;;;;9.18;6.20;;;25.10;99.90;;;;;;4158436;28;20262;-76
2022/06/23 09:21:27;;;;;;;14.07;6.78;;;25.10;99.90;;;;;;4154432;28;20217;-75
2022/06/23 09:23:53;;;;;;;13.48;6.20;;;25.10;99.90;;;;;;4153315;28;20208;-75
2022/06/23 09:26:05;;;;;;;10.15;5.75;;;25.20;99.90;;;;;;4152900;28;20216;-75
2022/06/23 09:28:16;;;;;;;11.57;6.80;;;25.30;99.90;;;;;;4150766;28;20667;-76
2022/06/23 09:30:24;;;;;;;10.90;6.65;;;25.30;99.90;;;;;;4152403;28;20251;-75
2022/06/23 09:32:55;;;;;;;11.93;6.88;;;25.30;99.90;;;;;;4156787;28;20286;-74
2022/06/23 09:35:28;;;;;;;10.60;6.20;;;25.30;99.90;;;;;;4151276;28;20632;-74
2022/06/23 09:37:53;;;;;;;7.22;5.65;;;25.30;99.90;;;;;;4112725;28;20212;-76
2022/06/23 09:40:23;;;;;;;10.32;6.30;;;25.40;99.90;;;;;;4155560;28;20217;-76
2022/06/23 09:43:17;;;;;;;11.77;6.07;;;25.50;99.90;;;;;;4157020;28;20685;-77
2022/06/23 09:45:54;;;;;;;9.60;5.70;;;25.40;99.90;;;;;;4098057;28;20241;-74
2022/06/23 09:48:23;;;;;;;8.10;6.13;;;25.40;99.90;;;;;;4142199;28;20216;-75
2022/06/23 09:51:06;;;;;;;7.55;5.35;;;25.40;99.90;;;;;;4151308;28;20278;-75
2022/06/23 09:53:38;;;;;;;9.68;5.10;;;25.50;99.90;;;;;;4151756;28;20244;-76
2022/06/23 09:56:04;;;;;;;6.28;5.00;;;25.40;99.90;;;;;;4129242;28;20220;-76
2022/06/23 09:58:34;;;;;;;10.45;5.30;;;25.40;99.90;;;;;;4156968;28;20296;-77
2022/06/23 10:00:45;;;;;;;8.07;4.68;;;25.60;99.90;;;;;;4151487;28;20294;-75
2022/06/23 10:03:02;;;;;;;7.88;5.40;;;25.60;99.90;;;;;;4155561;28;20216;-74
2022/06/23 10:05:17;;;;;;;9.35;5.07;;;25.70;99.90;;;;;;4149706;28;20228;-74
2022/06/23 10:07:50;;;;;;;6.45;5.07;;;25.80;99.90;;;;;;4149508;28;20301;-77
2022/06/23 10:10:06;;;;;;;9.05;5.47;;;25.80;99.90;;;;;;4153890;28;20278;-75
2022/06/23 10:12:24;;;;;;;6.95;5.30;;;25.90;99.90;;;;;;4145548;28;20278;-79
2022/06/23 10:14:44;;;;;;;8.93;5.65;;;25.80;99.90;;;;;;4158552;28;20236;-75
2022/06/23 10:17:00;;;;;;;9.93;5.10;;;25.80;99.90;;;;;;4146143;28;20242;-78
2022/06/23 10:19:31;;;;;;;9.40;5.28;;;25.80;99.90;;;;;;4150746;28;20293;-77
2022/06/23 10:21:49;;;;;;;7.97;4.97;;;25.80;99.90;;;;;;4153529;28;20679;-80
2022/06/23 10:24:22;;;;;;;6.97;4.70;;;25.80;99.90;;;;;;4156237;28;20212;-83
2022/06/23 10:26:50;;;;;;;9.25;5.13;;;25.70;99.90;;;;;;4134560;28;20238;-81
2022/06/23 10:29:20;;;;;;;12.32;5.05;;;25.70;99.90;;;;;;4153784;28;20293;-80
2022/06/23 10:31:40;;;;;;;8.55;5.53;;;25.80;99.90;;;;;;4148074;28;20254;-83
2022/06/23 10:33:57;;;;;;;9.70;5.32;;;25.80;99.90;;;;;;4155711;28;20236;-82
2022/06/23 10:36:34;;;;;;;9.13;5.10;;;25.90;99.90;;;;;;4153741;28;20216;-79
2022/06/23 10:38:58;;;;;;;10.60;5.25;;;26.00;99.90;;;;;;4130174;28;20212;-82
2022/06/23 10:41:24;;;;;;;10.05;5.60;;;26.10;99.90;;;;;;4157846;28;21440;-81
2022/06/23 10:43:53;;;;;;;10.77;5.57;;;26.00;99.90;;;;;;4161885;28;20217;-76
2022/06/23 10:46:01;;;;;;;9.32;5.40;;;26.00;99.90;;;;;;4157689;28;20216;-77
2022/06/23 10:48:34;;;;;;;10.38;5.53;;;25.90;99.90;;;;;;4159988;28;20672;-76
2022/06/23 10:50:50;;;;;;;8.10;5.82;;;25.90;99.90;;;;;;4158670;28;20266;-80
2022/06/23 10:53:09;;;;;;;11.15;6.15;;;25.90;99.90;;;;;;4156824;28;20216;-79
2022/06/23 10:55:38;;;;;;;15.38;6.72;;;25.90;99.90;;;;;;4157416;28;20215;-77
2022/06/23 10:58:25;;;;;;;13.80;5.95;;;26.10;99.90;;;;;;4158762;28;20212;-77
2022/06/23 11:00:36;;;;;;;20.17;6.63;;;26.10;99.90;;;;;;4160639;28;20217;-78
2022/06/23 11:03:01;;;;;;;12.23;6.25;;;26.10;99.90;;;;;;4157935;28;20220;-76
2022/06/23 11:05:23;;;;;;;11.90;6.60;;;26.10;99.90;;;;;;4159083;28;20258;-77
2022/06/23 11:07:44;;;;;;;15.65;6.88;;;26.10;99.90;;;;;;4154789;28;20251;-77
2022/06/23 11:10:08;;;;;;;10.88;6.05;;;26.10;99.90;;;;;;4157587;28;20205;-75
2022/06/23 11:12:33;;;;;;;13.93;6.40;;;26.10;99.90;;;;;;4155432;28;20276;-77
2022/06/23 11:14:47;;;;;;;12.18;5.90;;;26.10;99.90;;;;;;4151258;28;20293;-76
2022/06/23 11:17:02;;;;;;;12.02;5.70;;;26.10;99.90;;;;;;4158803;28;20262;-78
2022/06/23 11:19:19;;;;;;;12.82;5.82;;;26.20;99.90;;;;;;4157575;28;20267;-76
2022/06/23 11:21:40;;;;;;;12.02;5.82;;;26.20;99.90;;;;;;4158079;28;20257;-79
2022/06/23 11:23:54;;;;;;;10.55;5.03;;;26.20;99.90;;;;;;4154753;28;20353;-78
2022/06/23 11:26:06;;;;;;;10.02;5.88;;;26.20;99.90;;;;;;4154913;28;20296;-79
2022/06/23 11:28:18;;;;;;;9.50;5.10;;;26.20;99.90;;;;;;4153391;28;20484;-76
2022/06/23 11:30:24;;;;;;;10.93;5.00;;;26.10;99.90;;;;;;4157758;28;20714;-80
2022/06/23 11:32:40;;;;;;;7.90;5.15;;;26.10;99.90;;;;;;4158385;28;20304;-80
2022/06/23 11:35:02;;;;;;;7.53;4.90;;;26.20;99.90;;;;;;4157338;28;20236;-80